Time,TemperatureF,DewpointF,PressureIn,WindDirection,WindDirectionDegrees,WindSpeedMPH,WindSpeedGustMPH,Humidity,HourlyPrecipIn,Conditions,Clouds,dailyrainin,SolarRadiationWatts/m^2,SoftwareType,DateUTC
2013-05-28 00:00:00,62.5,55.9,30.31,West,279,0.0,2.0,79,0.00,,SCT,0.00,0.00,VWS V14.01,2013-05-28 04:00:00,
2013-05-28 00:01:00,62.9,55.6,30.31,West,279,0.0,0.0,77,0.00,,SCT,0.00,0.00,VWS V14.01,2013-05-28 04:01:00,
2013-05-28 00:06:00,63.0,56.4,30.31,West,279,0.0,1.0,79,0.00,,SCT,0.00,0.00,VWS V14.01,2013-05-28 04:06:00,
2013-05-28 00:11:00,62.8,56.2,30.31,West,279,0.0,1.0,79,0.00,,SCT,0.00,0.00,VWS V14.01,2013-05-28 04:11:00,
2013-05-28 00:16:00,62.5,55.9,30.31,West,279,0.0,1.0,79,0.00,,SCT,0.00,0.00,VWS V14.01,2013-05-28 04:16:00,
2013-05-28 00:21:00,62.6,56.0,30.31,West,279,0.0,1.0,79,0.00,,SCT,0.00,0.00,VWS V14.01,2013-05-28 04:21:00,
2013-05-28 00:26:00,62.6,56.0,30.31,West,279,0.0,1.0,79,0.00,,SCT,0.00,0.00,VWS V14.01,2013-05-28 04:26:00,
2013-05-28 00:31:00,62.5,55.9,30.31,West,279,0.0,3.0,79,0.00,,SCT,0.00,0.00,VWS V14.01,2013-05-28 04:31:00,
2013-05-28 00:36:00,62.4,55.8,30.31,West,279,0.0,3.0,79,0.00,,SCT,0.00,0.00,VWS V14.01,2013-05-28 04:36:00,
2013-05-28 00:41:00,62.1,56.2,30.31,West,279,0.0,3.0,81,0.00,,SCT,0.00,0.00,VWS V14.01,2013-05-28 04:41:00,
2013-05-28 00:46:00,62.0,55.8,30.31,West,279,0.0,3.0,80,0.00,,SCT,0.00,0.00,VWS V14.01,2013-05-28 04:46:00,
2013-05-28 00:51:00,62.0,55.8,30.31,West,279,0.0,3.0,80,0.00,,SCT,0.00,0.00,VWS V14.01,2013-05-28 04:51:00,
2013-05-28 00:56:00,62.2,55.6,30.31,West,279,0.0,1.0,79,0.00,,SCT,0.00,0.00,VWS V14.01,2013-05-28 04:56:00,
2013-05-28 01:00:00,62.1,55.9,30.31,West,279,0.0,3.0,80,0.00,,SCT,0.00,0.00,VWS V14.01,2013-05-28 05:00:00,
2013-05-28 01:01:00,62.0,55.8,30.31,West,279,0.0,1.0,80,0.00,,SCT,0.00,0.00,VWS V14.01,2013-05-28 05:01:00,
2013-05-28 01:06:00,61.3,56.1,30.31,West,279,1.0,3.0,83,0.00,,SCT,0.00,0.00,VWS V14.01,2013-05-28 05:06:00,
2013-05-28 01:11:00,61.1,55.9,30.31,West,279,0.0,3.0,83,0.00,,SCT,0.00,0.00,VWS V14.01,2013-05-28 05:11:00,
2013-05-28 01:16:00,61.0,56.1,30.31,West,279,0.0,3.0,84,0.00,,SCT,0.00,0.00,VWS V14.01,2013-05-28 05:16:00,
2013-05-28 01:21:00,60.7,56.2,30.30,West,279,0.0,3.0,85,0.00,,SCT,0.00,0.00,VWS V14.01,2013-05-28 05:21:00,
2013-05-28 01:26:00,60.4,56.5,30.30,West,279,0.0,3.0,87,0.00,,SCT,0.00,0.00,VWS V14.01,2013-05-28 05:26:00,
2013-05-28 01:31:00,60.3,56.4,30.30,West,279,0.0,3.0,87,0.00,,SCT,0.00,0.00,VWS V14.01,2013-05-28 05:31:00,
2013-05-28 01:36:00,60.0,56.1,30.30,West,279,0.0,3.0,87,0.00,,SCT,0.00,0.00,VWS V14.01,2013-05-28 05:36:00,
2013-05-28 01:41:00,59.9,56.3,30.30,West,279,0.0,3.0,88,0.00,,SCT,0.00,0.00,VWS V14.01,2013-05-28 05:41:00,
2013-05-28 01:46:00,59.6,56.0,30.30,West,279,0.0,3.0,88,0.00,,SCT,0.00,0.00,VWS V14.01,2013-05-28 05:46:00,
2013-05-28 01:51:00,59.6,56.0,30.29,West,279,0.0,3.0,88,0.00,,SCT,0.00,0.00,VWS V14.01,2013-05-28 05:51:00,
2013-05-28 01:56:00,59.5,56.0,30.29,West,279,0.0,0.0,88,0.00,,SCT,0.00,0.00,VWS V14.01,2013-05-28 05:56:00,
2013-05-28 02:00:00,59.6,56.0,30.29,West,279,0.0,3.0,88,0.00,,SCT,0.00,0.00,VWS V14.01,2013-05-28 06:00:00,
2013-05-28 02:01:00,59.6,55.7,30.29,West,279,0.0,0.0,87,0.00,,SCT,0.00,0.00,VWS V14.01,2013-05-28 06:01:00,
2013-05-28 02:06:00,59.5,55.6,30.29,West,279,0.0,0.0,87,0.00,,SCT,0.00,0.00,VWS V14.01,2013-05-28 06:06:00,
2013-05-28 02:11:00,59.4,55.8,30.29,West,279,0.0,0.0,88,0.00,,SCT,0.00,0.00,VWS V14.01,2013-05-28 06:11:00,
2013-05-28 02:16:00,58.8,55.6,30.29,West,279,0.0,0.0,89,0.00,,SCT,0.00,0.00,VWS V14.01,2013-05-28 06:16:00,
2013-05-28 02:21:00,58.5,55.0,30.29,West,279,0.0,2.0,88,0.00,,SCT,0.00,0.00,VWS V14.01,2013-05-28 06:21:00,
2013-05-28 02:26:00,58.6,54.8,30.29,West,279,0.0,2.0,87,0.00,,SCT,0.00,0.00,VWS V14.01,2013-05-28 06:26:00,
2013-05-28 02:31:00,58.6,54.8,30.29,West,279,0.0,2.0,87,0.00,,SCT,0.00,0.00,VWS V14.01,2013-05-28 06:31:00,
2013-05-28 02:35:00,58.8,55.3,30.29,West,279,0.0,2.0,88,0.00,,SCT,0.00,0.00,VWS V14.01,2013-05-28 06:35:00,
2013-05-28 02:40:00,58.7,54.8,30.28,West,279,0.0,2.0,87,0.00,,SCT,0.00,0.00,VWS V14.01,2013-05-28 06:40:00,
2013-05-28 02:45:00,58.6,55.1,30.28,West,279,0.0,2.0,88,0.00,,SCT,0.00,0.00,VWS V14.01,2013-05-28 06:45:00,
2013-05-28 02:50:00,58.6,54.8,30.28,West,279,0.0,2.0,87,0.00,,SCT,0.00,0.00,VWS V14.01,2013-05-28 06:50:00,
2013-05-28 02:55:00,58.2,54.4,30.28,West,279,0.0,0.0,87,0.00,,SCT,0.00,0.00,VWS V14.01,2013-05-28 06:55:00,
2013-05-28 03:00:00,58.2,55.0,30.28,West,279,0.0,1.0,89,0.00,,SCT,0.00,0.00,VWS V14.01,2013-05-28 07:00:00,
2013-05-28 03:05:00,58.2,55.0,30.28,West,279,0.0,1.0,89,0.00,,SCT,0.00,0.00,VWS V14.01,2013-05-28 07:05:00,
2013-05-28 03:10:00,58.4,55.8,30.28,West,279,0.0,1.0,91,0.00,,SCT,0.00,0.00,VWS V14.01,2013-05-28 07:10:00,
2013-05-28 03:15:00,58.3,55.7,30.28,West,279,0.0,1.0,91,0.00,,SCT,0.00,0.00,VWS V14.01,2013-05-28 07:15:00,
2013-05-28 03:20:00,58.0,55.4,30.28,West,279,0.0,1.0,91,0.00,,SCT,0.00,0.00,VWS V14.01,2013-05-28 07:20:00,
2013-05-28 03:25:00,57.7,55.4,30.27,West,279,0.0,1.0,92,0.00,,SCT,0.00,0.00,VWS V14.01,2013-05-28 07:25:00,
2013-05-28 03:30:00,57.9,55.9,30.27,West,279,0.0,1.0,93,0.00,,SCT,0.00,0.00,VWS V14.01,2013-05-28 07:30:00,
2013-05-28 03:35:00,57.9,55.9,30.27,West,279,0.0,1.0,93,0.00,,SCT,0.00,0.00,VWS V14.01,2013-05-28 07:35:00,
2013-05-28 03:40:00,58.1,56.1,30.27,West,279,0.0,1.0,93,0.00,,SCT,0.00,0.00,VWS V14.01,2013-05-28 07:40:00,
2013-05-28 03:45:00,58.2,55.9,30.27,West,279,0.0,1.0,92,0.00,,SCT,0.00,0.00,VWS V14.01,2013-05-28 07:45:00,
2013-05-28 03:50:00,57.8,55.5,30.27,West,279,0.0,1.0,92,0.00,,SCT,0.00,0.00,VWS V14.01,2013-05-28 07:50:00,
2013-05-28 03:55:00,57.4,55.1,30.27,West,279,0.0,1.0,92,0.00,,SCT,0.00,0.00,VWS V14.01,2013-05-28 07:55:00,
2013-05-28 04:00:00,57.6,55.6,30.26,West,279,1.0,2.0,93,0.00,,SCT,0.00,0.00,VWS V14.01,2013-05-28 08:00:00,
2013-05-28 04:05:00,57.8,55.5,30.26,West,279,0.0,3.0,92,0.00,,SCT,0.00,0.00,VWS V14.01,2013-05-28 08:05:00,
2013-05-28 04:10:00,57.8,55.2,30.26,West,279,0.0,3.0,91,0.00,,SCT,0.00,0.00,VWS V14.01,2013-05-28 08:10:00,
2013-05-28 04:15:00,57.3,54.7,30.26,West,279,0.0,3.0,91,0.00,,SCT,0.00,0.00,VWS V14.01,2013-05-28 08:15:00,
2013-05-28 04:20:00,56.9,54.6,30.26,West,279,3.0,3.0,92,0.00,,SCT,0.00,0.00,VWS V14.01,2013-05-28 08:20:00,
2013-05-28 04:25:00,56.6,54.6,30.26,WNW,284,3.0,4.0,93,0.00,,SCT,0.00,0.00,VWS V14.01,2013-05-28 08:25:00,
2013-05-28 04:30:00,56.7,54.7,30.26,WNW,284,0.0,4.0,93,0.00,,SCT,0.00,0.00,VWS V14.01,2013-05-28 08:30:00,
2013-05-28 04:35:00,57.1,55.1,30.26,WNW,284,0.0,4.0,93,0.00,,SCT,0.00,0.00,VWS V14.01,2013-05-28 08:35:00,
2013-05-28 04:40:00,57.3,55.0,30.26,WNW,284,0.0,4.0,92,0.00,,SCT,0.00,0.00,VWS V14.01,2013-05-28 08:40:00,
2013-05-28 04:45:00,57.2,54.9,30.26,WNW,284,0.0,4.0,92,0.00,,SCT,0.00,0.00,VWS V14.01,2013-05-28 08:45:00,
2013-05-28 04:50:00,56.9,54.6,30.26,WNW,284,0.0,4.0,92,0.00,,SCT,0.00,0.00,VWS V14.01,2013-05-28 08:50:00,
2013-05-28 04:55:00,56.5,54.2,30.26,WNW,284,0.0,0.0,92,0.00,,SCT,0.00,0.00,VWS V14.01,2013-05-28 08:55:00,
2013-05-28 05:00:00,56.1,54.1,30.27,WNW,284,0.0,0.0,93,0.00,,SCT,0.00,0.00,VWS V14.01,2013-05-28 09:00:00,
2013-05-28 05:05:00,56.0,54.3,30.27,WNW,284,0.0,0.0,94,0.00,,SCT,0.00,0.00,VWS V14.01,2013-05-28 09:05:00,
2013-05-28 05:10:00,56.1,54.4,30.27,WNW,284,0.0,0.0,94,0.00,,SCT,0.00,0.00,VWS V14.01,2013-05-28 09:10:00,
2013-05-28 05:15:00,56.2,54.5,30.27,WNW,284,0.0,0.0,94,0.00,,SCT,0.00,0.00,VWS V14.01,2013-05-28 09:15:00,
2013-05-28 05:20:00,56.1,54.4,30.27,WNW,284,0.0,0.0,94,0.00,,SCT,0.00,0.00,VWS V14.01,2013-05-28 09:20:00,
2013-05-28 05:25:00,55.9,54.2,30.27,WNW,284,0.0,0.0,94,0.00,,SCT,0.00,0.00,VWS V14.01,2013-05-28 09:25:00,
2013-05-28 05:30:00,55.8,54.1,30.27,WNW,284,0.0,1.0,94,0.00,,SCT,0.00,0.00,VWS V14.01,2013-05-28 09:30:00,
2013-05-28 05:35:00,56.0,54.3,30.27,WNW,284,0.0,1.0,94,0.00,,SCT,0.00,0.00,VWS V14.01,2013-05-28 09:35:00,
2013-05-28 05:40:00,56.1,54.4,30.27,WNW,284,0.0,1.0,94,0.00,,SCT,0.00,0.00,VWS V14.01,2013-05-28 09:40:00,
2013-05-28 05:45:00,55.9,54.2,30.28,WNW,284,0.0,2.0,94,0.00,,SCT,0.00,0.00,VWS V14.01,2013-05-28 09:45:00,
2013-05-28 05:50:00,55.4,53.7,30.28,WNW,284,0.0,2.0,94,0.00,,SCT,0.00,0.00,VWS V14.01,2013-05-28 09:50:00,
2013-05-28 05:55:00,55.4,53.7,30.28,WNW,284,0.0,0.0,94,0.00,,SCT,0.00,0.00,VWS V14.01,2013-05-28 09:55:00,
2013-05-28 06:00:00,55.6,54.2,30.27,WNW,284,0.0,0.0,95,0.00,,SCT,0.00,0.00,VWS V14.01,2013-05-28 10:00:00,
2013-05-28 06:05:00,55.9,54.5,30.28,WNW,284,0.0,0.0,95,0.00,,SCT,0.00,7.00,VWS V14.01,2013-05-28 10:05:00,
2013-05-28 06:10:00,55.9,54.5,30.28,WNW,284,0.0,1.0,95,0.00,,SCT,0.00,9.00,VWS V14.01,2013-05-28 10:10:00,
2013-05-28 06:15:00,56.0,54.3,30.28,WNW,284,0.0,1.0,94,0.00,,SCT,0.00,12.00,VWS V14.01,2013-05-28 10:15:00,
2013-05-28 06:20:00,56.1,54.4,30.28,WNW,284,3.0,3.0,94,0.00,,SCT,0.00,16.00,VWS V14.01,2013-05-28 10:20:00,
2013-05-28 06:25:00,56.1,54.4,30.29,WNW,284,0.0,3.0,94,0.00,,SCT,0.00,16.00,VWS V14.01,2013-05-28 10:25:00,
2013-05-28 06:30:00,55.9,54.2,30.29,WNW,284,0.0,3.0,94,0.00,,SCT,0.00,19.00,VWS V14.01,2013-05-28 10:30:00,
2013-05-28 06:35:00,55.6,53.9,30.29,WNW,286,2.0,3.0,94,0.00,,SCT,0.00,23.00,VWS V14.01,2013-05-28 10:35:00,
2013-05-28 06:40:00,55.6,53.9,30.29,WNW,286,0.0,3.0,94,0.00,,SCT,0.00,26.00,VWS V14.01,2013-05-28 10:40:00,
2013-05-28 06:45:00,55.9,54.2,30.30,WNW,286,1.0,3.0,94,0.00,,SCT,0.00,32.00,VWS V14.01,2013-05-28 10:45:00,
2013-05-28 06:50:00,56.1,54.4,30.30,WNW,286,0.0,3.0,94,0.00,,SCT,0.00,40.00,VWS V14.01,2013-05-28 10:50:00,
2013-05-28 06:55:00,56.3,54.6,30.30,WNW,286,0.0,0.0,94,0.00,,SCT,0.00,47.00,VWS V14.01,2013-05-28 10:55:00,
2013-05-28 07:00:00,56.0,54.3,30.30,WNW,286,0.0,0.0,94,0.00,,SCT,0.00,54.00,VWS V14.01,2013-05-28 11:00:00,
2013-05-28 07:05:00,56.0,54.3,30.30,WNW,286,0.0,1.0,94,0.00,,SCT,0.00,67.00,VWS V14.01,2013-05-28 11:05:00,
2013-05-28 07:10:00,56.1,54.4,30.29,WNW,286,3.0,3.0,94,0.00,,SCT,0.00,65.00,VWS V14.01,2013-05-28 11:10:00,
2013-05-28 07:15:00,56.4,54.7,30.29,WNW,286,0.0,4.0,94,0.00,,SCT,0.00,79.00,VWS V14.01,2013-05-28 11:15:00,
2013-05-28 07:20:00,56.9,55.2,30.29,WNW,286,0.0,4.0,94,0.00,,SCT,0.00,79.00,VWS V14.01,2013-05-28 11:20:00,
2013-05-28 07:25:00,57.4,55.7,30.28,WNW,286,0.0,4.0,94,0.00,,SCT,0.00,83.00,VWS V14.01,2013-05-28 11:25:00,
2013-05-28 07:30:00,57.8,55.8,30.29,WNW,286,0.0,4.0,93,0.00,,SCT,0.00,84.00,VWS V14.01,2013-05-28 11:30:00,
2013-05-28 07:35:00,58.2,55.9,30.29,WNW,286,0.0,4.0,92,0.00,,SCT,0.00,81.00,VWS V14.01,2013-05-28 11:35:00,
2013-05-28 07:40:00,58.4,56.1,30.29,WNW,286,2.0,4.0,92,0.00,,SCT,0.00,83.00,VWS V14.01,2013-05-28 11:40:00,
2013-05-28 07:45:00,58.3,56.0,30.29,WNW,288,0.0,4.0,92,0.00,,SCT,0.00,91.00,VWS V14.01,2013-05-28 11:45:00,
2013-05-28 07:50:00,58.4,56.1,30.29,WNW,288,0.0,4.0,92,0.00,,SCT,0.00,105.00,VWS V14.01,2013-05-28 11:50:00,
2013-05-28 07:55:00,58.6,56.3,30.29,WNW,288,1.0,1.0,92,0.00,,SCT,0.00,111.00,VWS V14.01,2013-05-28 11:55:00,
2013-05-28 08:00:00,58.6,56.3,30.29,WNW,288,1.0,2.0,92,0.00,,SCT,0.00,118.00,VWS V14.01,2013-05-28 12:00:00,
2013-05-28 08:05:00,58.9,56.3,30.29,WNW,288,0.0,2.0,91,0.00,,SCT,0.00,130.00,VWS V14.01,2013-05-28 12:05:00,
2013-05-28 08:10:00,59.7,57.1,30.28,WNW,288,0.0,2.0,91,0.00,,SCT,0.00,132.00,VWS V14.01,2013-05-28 12:10:00,
2013-05-28 08:15:00,60.1,56.8,30.28,WNW,288,0.0,3.0,89,0.00,,SCT,0.00,134.00,VWS V14.01,2013-05-28 12:15:00,
2013-05-28 08:20:00,60.1,56.8,30.28,WNW,288,0.0,3.0,89,0.00,,SCT,0.00,134.00,VWS V14.01,2013-05-28 12:20:00,
2013-05-28 08:25:00,60.7,57.1,30.28,WNW,288,0.0,3.0,88,0.00,,SCT,0.00,139.00,VWS V14.01,2013-05-28 12:25:00,
2013-05-28 08:30:00,60.8,57.2,30.29,West,267,2.0,3.0,88,0.00,,SCT,0.00,144.00,VWS V14.01,2013-05-28 12:30:00,
2013-05-28 08:35:00,60.6,57.0,30.29,WSW,243,0.0,3.0,88,0.00,,SCT,0.00,146.00,VWS V14.01,2013-05-28 12:35:00,
2013-05-28 08:40:00,60.8,57.2,30.29,WSW,243,3.0,3.0,88,0.00,,SCT,0.00,135.00,VWS V14.01,2013-05-28 12:40:00,
2013-05-28 08:45:00,61.0,57.4,30.28,WSW,243,1.0,3.0,88,0.00,,SCT,0.00,151.00,VWS V14.01,2013-05-28 12:45:00,
2013-05-28 08:50:00,61.4,57.5,30.28,WSW,243,0.0,3.0,87,0.00,,SCT,0.00,158.00,VWS V14.01,2013-05-28 12:50:00,
2013-05-28 08:55:00,62.1,57.9,30.28,WSW,243,0.0,1.0,86,0.00,,SCT,0.00,156.00,VWS V14.01,2013-05-28 12:55:00,
2013-05-28 09:00:00,62.8,57.9,30.28,WSW,243,0.0,2.0,84,0.00,,SCT,0.00,343.00,VWS V14.01,2013-05-28 13:00:00,
2013-05-28 09:05:00,64.1,58.5,30.28,WSW,244,0.0,4.0,82,0.00,,SCT,0.00,417.00,VWS V14.01,2013-05-28 13:05:00,
2013-05-28 09:10:00,64.5,58.9,30.28,WSW,245,2.0,4.0,82,0.00,,SCT,0.00,439.00,VWS V14.01,2013-05-28 13:10:00,
2013-05-28 09:15:00,65.1,59.1,30.28,WSW,245,1.0,4.0,81,0.00,,SCT,0.00,519.00,VWS V14.01,2013-05-28 13:15:00,
2013-05-28 09:20:00,66.3,60.0,30.27,WSW,245,0.0,4.0,80,0.00,,SCT,0.00,388.00,VWS V14.01,2013-05-28 13:20:00,
2013-05-28 09:25:00,67.3,60.2,30.27,SW,214,2.0,4.0,78,0.00,,SCT,0.00,318.00,VWS V14.01,2013-05-28 13:25:00,
2013-05-28 09:30:00,67.3,60.2,30.27,SSW,211,0.0,4.0,78,0.00,,SCT,0.00,295.00,VWS V14.01,2013-05-28 13:30:00,
2013-05-28 09:35:00,68.1,60.6,30.27,NE,34,3.0,6.0,77,0.00,,SCT,0.00,345.00,VWS V14.01,2013-05-28 13:35:00,
2013-05-28 09:40:00,68.3,60.5,30.27,North,5,1.0,11.0,76,0.00,,SCT,0.00,441.00,VWS V14.01,2013-05-28 13:40:00,
2013-05-28 09:45:00,68.8,60.6,30.27,NE,45,6.0,11.0,75,0.00,,SCT,0.00,406.00,VWS V14.01,2013-05-28 13:45:00,
2013-05-28 09:50:00,68.6,60.7,30.27,NE,38,5.0,11.0,76,0.00,,SCT,0.00,376.00,VWS V14.01,2013-05-28 13:50:00,
2013-05-28 09:55:00,68.9,61.0,30.27,NE,49,0.0,6.0,76,0.00,,SCT,0.00,378.00,VWS V14.01,2013-05-28 13:55:00,
2013-05-28 10:00:00,68.8,60.9,30.27,NE,38,2.0,13.0,76,0.00,,SCT,0.00,350.00,VWS V14.01,2013-05-28 14:00:00,
2013-05-28 10:05:00,69.4,61.9,30.27,ENE,67,5.0,13.0,77,0.00,,SCT,0.00,550.00,VWS V14.01,2013-05-28 14:05:00,
2013-05-28 10:10:00,70.0,62.5,30.27,NNE,12,6.0,13.0,77,0.00,,SCT,0.00,538.00,VWS V14.01,2013-05-28 14:10:00,
2013-05-28 10:15:00,70.8,62.5,30.27,NNE,28,4.0,13.0,75,0.00,,SCT,0.00,445.00,VWS V14.01,2013-05-28 14:15:00,
2013-05-28 10:20:00,71.7,63.0,30.27,North,9,7.0,13.0,74,0.00,,SCT,0.00,571.00,VWS V14.01,2013-05-28 14:20:00,
2013-05-28 10:25:00,72.3,63.6,30.27,North,5,3.0,13.0,74,0.00,,SCT,0.00,441.00,VWS V14.01,2013-05-28 14:25:00,
2013-05-28 10:30:00,72.8,63.7,30.27,North,5,7.0,13.0,73,0.00,,SCT,0.00,506.00,VWS V14.01,2013-05-28 14:30:00,
2013-05-28 10:35:00,73.5,63.9,30.27,NNE,14,6.0,13.0,72,0.00,,SCT,0.00,636.00,VWS V14.01,2013-05-28 14:35:00,
2013-05-28 10:40:00,74.0,63.6,30.27,North,360,6.0,13.0,70,0.00,,SCT,0.00,707.00,VWS V14.01,2013-05-28 14:40:00,
2013-05-28 10:45:00,74.0,63.6,30.26,NNE,19,6.0,13.0,70,0.00,,SCT,0.00,401.00,VWS V14.01,2013-05-28 14:45:00,
2013-05-28 10:50:00,73.9,63.5,30.26,NNE,13,11.0,13.0,70,0.00,,SCT,0.00,747.00,VWS V14.01,2013-05-28 14:50:00,
2013-05-28 10:55:00,74.7,64.7,30.26,NNE,16,8.0,9.0,71,0.00,,SCT,0.00,733.00,VWS V14.01,2013-05-28 14:55:00,
2013-05-28 11:00:00,75.1,63.8,30.26,North,5,8.0,14.0,68,0.00,,SCT,0.00,745.00,VWS V14.01,2013-05-28 15:00:00,
2013-05-28 11:05:00,74.8,64.4,30.26,North,5,8.0,14.0,70,0.00,,SCT,0.00,738.00,VWS V14.01,2013-05-28 15:05:00,
2013-05-28 11:10:00,75.9,65.0,30.26,NE,40,7.0,14.0,69,0.00,,SCT,0.00,751.00,VWS V14.01,2013-05-28 15:10:00,
2013-05-28 11:15:00,76.1,64.4,30.26,NE,36,7.0,14.0,67,0.00,,SCT,0.00,766.00,VWS V14.01,2013-05-28 15:15:00,
2013-05-28 11:20:00,76.2,64.4,30.26,NNE,26,11.0,14.0,67,0.00,,SCT,0.00,775.00,VWS V14.01,2013-05-28 15:20:00,
2013-05-28 11:25:00,75.8,64.1,30.26,North,360,10.0,14.0,67,0.00,,SCT,0.00,775.00,VWS V14.01,2013-05-28 15:25:00,
2013-05-28 11:30:00,75.8,64.1,30.26,North,360,10.0,14.0,67,0.00,,SCT,0.00,775.00,VWS V14.01,2013-05-28 15:30:00,
2013-05-28 11:35:00,76.4,65.1,30.25,ENE,58,6.0,14.0,68,0.00,,SCT,0.00,780.00,VWS V14.01,2013-05-28 15:35:00,
2013-05-28 11:40:00,76.8,65.4,30.25,NNE,16,11.0,15.0,68,0.00,,SCT,0.00,800.00,VWS V14.01,2013-05-28 15:40:00,
2013-05-28 11:45:00,77.4,65.6,30.25,NNE,17,11.0,15.0,67,0.00,,SCT,0.00,800.00,VWS V14.01,2013-05-28 15:45:00,
2013-05-28 11:50:00,77.8,65.1,30.24,NE,34,7.0,15.0,65,0.00,,SCT,0.00,780.00,VWS V14.01,2013-05-28 15:50:00,
2013-05-28 11:55:00,78.4,65.7,30.24,North,5,7.0,10.0,65,0.00,,SCT,0.00,823.00,VWS V14.01,2013-05-28 15:55:00,
2013-05-28 12:00:00,78.4,65.2,30.24,NE,36,8.0,13.0,64,0.00,,SCT,0.00,821.00,VWS V14.01,2013-05-28 16:00:00,
2013-05-28 12:05:00,78.5,65.8,30.24,NE,46,7.0,13.0,65,0.00,,SCT,0.00,812.00,VWS V14.01,2013-05-28 16:05:00,
2013-05-28 12:10:00,79.4,66.6,30.24,NNE,20,4.0,13.0,65,0.00,,SCT,0.00,833.00,VWS V14.01,2013-05-28 16:10:00,
2013-05-28 12:15:00,79.5,66.7,30.24,NNW,348,6.0,13.0,65,0.00,,SCT,0.00,826.00,VWS V14.01,2013-05-28 16:15:00,
2013-05-28 12:20:00,79.2,66.4,30.24,NNW,342,6.0,13.0,65,0.00,,SCT,0.00,828.00,VWS V14.01,2013-05-28 16:20:00,
2013-05-28 12:25:00,79.9,66.2,30.23,NE,43,5.0,13.0,63,0.00,,SCT,0.00,830.00,VWS V14.01,2013-05-28 16:25:00,
2013-05-28 12:30:00,80.4,66.2,30.23,NNE,28,7.0,13.0,62,0.00,,SCT,0.00,835.00,VWS V14.01,2013-05-28 16:30:00,
2013-05-28 12:35:00,80.6,65.9,30.23,North,9,10.0,14.0,61,0.00,,SCT,0.00,840.00,VWS V14.01,2013-05-28 16:35:00,
2013-05-28 12:40:00,81.0,67.2,30.23,NNE,17,3.0,14.0,63,0.00,,SCT,0.00,846.00,VWS V14.01,2013-05-28 16:40:00,
2013-05-28 12:45:00,80.9,67.1,30.22,North,360,5.0,14.0,63,0.00,,SCT,0.00,860.00,VWS V14.01,2013-05-28 16:45:00,
2013-05-28 12:50:00,81.2,66.5,30.22,NNE,33,7.0,14.0,61,0.00,,SCT,0.00,844.00,VWS V14.01,2013-05-28 16:50:00,
2013-05-28 12:55:00,81.8,66.1,30.22,NNE,17,11.0,14.0,59,0.00,,SCT,0.00,844.00,VWS V14.01,2013-05-28 16:55:00,
2013-05-28 13:00:00,81.8,65.6,30.22,NNE,24,14.0,17.0,58,0.00,,SCT,0.00,844.00,VWS V14.01,2013-05-28 17:00:00,
2013-05-28 13:05:00,82.0,66.8,30.21,NNE,26,10.0,17.0,60,0.00,,SCT,0.00,443.00,VWS V14.01,2013-05-28 17:05:00,
2013-05-28 13:10:00,82.4,66.2,30.21,NNE,12,13.0,17.0,58,0.00,,SCT,0.00,190.00,VWS V14.01,2013-05-28 17:10:00,
2013-05-28 13:15:00,83.0,67.2,30.21,North,355,5.0,17.0,59,0.00,,SCT,0.00,826.00,VWS V14.01,2013-05-28 17:15:00,
2013-05-28 13:20:00,82.7,66.4,30.21,North,5,6.0,17.0,58,0.00,,SCT,0.00,854.00,VWS V14.01,2013-05-28 17:20:00,
2013-05-28 13:25:00,82.3,66.6,30.21,NNW,348,8.0,17.0,59,0.00,,SCT,0.00,831.00,VWS V14.01,2013-05-28 17:25:00,
2013-05-28 13:30:00,82.6,67.3,30.21,NNW,336,5.0,17.0,60,0.00,,SCT,0.00,870.00,VWS V14.01,2013-05-28 17:30:00,
2013-05-28 13:35:00,83.2,67.9,30.21,NNW,347,9.0,17.0,60,0.00,,SCT,0.00,853.00,VWS V14.01,2013-05-28 17:35:00,
2013-05-28 13:40:00,82.8,67.5,30.21,NNW,342,7.0,17.0,60,0.00,,SCT,0.00,842.00,VWS V14.01,2013-05-28 17:40:00,
2013-05-28 13:45:00,82.8,67.5,30.21,NNE,17,4.0,17.0,60,0.00,,SCT,0.00,830.00,VWS V14.01,2013-05-28 17:45:00,
2013-05-28 13:50:00,83.2,67.4,30.21,WNW,285,6.0,17.0,59,0.00,,SCT,0.00,854.00,VWS V14.01,2013-05-28 17:50:00,
2013-05-28 13:55:00,83.4,66.6,30.21,NE,34,8.0,13.0,57,0.00,,SCT,0.00,810.00,VWS V14.01,2013-05-28 17:55:00,
2013-05-28 14:00:00,84.7,66.8,30.21,North,355,3.0,13.0,55,0.00,,SCT,0.00,812.00,VWS V14.01,2013-05-28 18:00:00,
2013-05-28 14:05:00,84.5,67.1,30.21,North,5,8.0,13.0,56,0.00,,SCT,0.00,844.00,VWS V14.01,2013-05-28 18:05:00,
2013-05-28 14:10:00,84.6,66.1,30.21,NNW,342,4.0,13.0,54,0.00,,SCT,0.00,851.00,VWS V14.01,2013-05-28 18:10:00,
2013-05-28 14:15:00,84.7,66.2,30.21,NNW,348,8.0,14.0,54,0.00,,SCT,0.00,844.00,VWS V14.01,2013-05-28 18:15:00,
2013-05-28 14:20:00,83.8,67.0,30.21,North,5,13.0,14.0,57,0.00,,SCT,0.00,826.00,VWS V14.01,2013-05-28 18:20:00,
2013-05-28 14:24:00,83.9,67.1,30.21,NE,36,8.0,15.0,57,0.00,,SCT,0.00,823.00,VWS V14.01,2013-05-28 18:24:00,
2013-05-28 14:29:00,85.1,67.1,30.20,North,355,7.0,15.0,55,0.00,,SCT,0.00,800.00,VWS V14.01,2013-05-28 18:29:00,
2013-05-28 14:34:00,85.0,67.0,30.21,North,360,11.0,15.0,55,0.00,,SCT,0.00,809.00,VWS V14.01,2013-05-28 18:34:00,
2013-05-28 14:39:00,84.3,66.4,30.20,North,360,4.0,16.0,55,0.00,,SCT,0.00,795.00,VWS V14.01,2013-05-28 18:39:00,
2013-05-28 14:44:00,84.8,66.8,30.20,NNE,15,15.0,17.0,55,0.00,,SCT,0.00,786.00,VWS V14.01,2013-05-28 18:44:00,
2013-05-28 14:49:00,84.8,66.3,30.20,NNE,16,11.0,17.0,54,0.00,,SCT,0.00,793.00,VWS V14.01,2013-05-28 18:49:00,
2013-05-28 14:54:00,85.8,66.2,30.19,NNW,346,6.0,13.0,52,0.00,,SCT,0.00,747.00,VWS V14.01,2013-05-28 18:54:00,
2013-05-28 14:59:00,85.4,65.2,30.19,NNE,26,12.0,14.0,51,0.00,,SCT,0.00,803.00,VWS V14.01,2013-05-28 18:59:00,
2013-05-28 15:00:00,85.4,65.8,30.19,NNE,13,12.0,17.0,52,0.00,,SCT,0.00,793.00,VWS V14.01,2013-05-28 19:00:00,
2013-05-28 15:04:00,85.9,66.2,30.19,NNE,22,10.0,15.0,52,0.00,,SCT,0.00,772.00,VWS V14.01,2013-05-28 19:04:00,
2013-05-28 15:09:00,85.4,65.8,30.19,NW,322,3.0,16.0,52,0.00,,SCT,0.00,729.00,VWS V14.01,2013-05-28 19:09:00,
2013-05-28 15:14:00,85.3,65.1,30.18,NNE,33,17.0,18.0,51,0.00,,SCT,0.00,729.00,VWS V14.01,2013-05-28 19:14:00,
2013-05-28 15:19:00,85.4,64.7,30.18,North,355,8.0,18.0,50,0.00,,SCT,0.00,756.00,VWS V14.01,2013-05-28 19:19:00,
2013-05-28 15:24:00,85.7,65.5,30.18,NNE,22,10.0,18.0,51,0.00,,SCT,0.00,724.00,VWS V14.01,2013-05-28 19:24:00,
2013-05-28 15:29:00,85.8,65.0,30.18,NNE,12,10.0,18.0,50,0.00,,SCT,0.00,740.00,VWS V14.01,2013-05-28 19:29:00,
2013-05-28 15:34:00,85.5,66.4,30.18,NNW,342,9.0,18.0,53,0.00,,SCT,0.00,691.00,VWS V14.01,2013-05-28 19:34:00,
2013-05-28 15:39:00,85.3,65.7,30.17,NNE,17,11.0,18.0,52,0.00,,SCT,0.00,677.00,VWS V14.01,2013-05-28 19:39:00,
2013-05-28 15:44:00,85.3,65.7,30.17,NNE,17,11.0,18.0,52,0.00,,SCT,0.00,677.00,VWS V14.01,2013-05-28 19:44:00,
2013-05-28 15:49:00,85.5,67.0,30.17,NNE,32,3.0,18.0,54,0.00,,SCT,0.00,663.00,VWS V14.01,2013-05-28 19:49:00,
2013-05-28 15:54:00,85.3,65.1,30.17,NW,320,9.0,15.0,51,0.00,,SCT,0.00,664.00,VWS V14.01,2013-05-28 19:54:00,
2013-05-28 15:59:00,85.4,65.8,30.17,NNE,19,11.0,15.0,52,0.00,,SCT,0.00,645.00,VWS V14.01,2013-05-28 19:59:00,
2013-05-28 16:00:00,85.7,65.5,30.17,NNE,15,11.0,18.0,51,0.00,,SCT,0.00,668.00,VWS V14.01,2013-05-28 20:00:00,
2013-05-28 16:04:00,86.4,66.2,30.17,NW,319,7.0,15.0,51,0.00,,SCT,0.00,638.00,VWS V14.01,2013-05-28 20:04:00,
2013-05-28 16:09:00,86.0,65.8,30.17,NNE,22,13.0,16.0,51,0.00,,SCT,0.00,636.00,VWS V14.01,2013-05-28 20:09:00,
2013-05-28 16:14:00,86.3,66.1,30.16,NNW,348,3.0,16.0,51,0.00,,SCT,0.00,636.00,VWS V14.01,2013-05-28 20:14:00,
2013-05-28 16:19:00,86.6,65.8,30.16,NNE,15,7.0,20.0,50,0.00,,SCT,0.00,628.00,VWS V14.01,2013-05-28 20:19:00,
2013-05-28 16:24:00,85.8,65.6,30.16,WNW,296,5.0,20.0,51,0.00,,SCT,0.00,636.00,VWS V14.01,2013-05-28 20:24:00,
2013-05-28 16:29:00,85.2,65.6,30.16,NNE,30,10.0,20.0,52,0.00,,SCT,0.00,696.00,VWS V14.01,2013-05-28 20:29:00,
2013-05-28 16:34:00,85.3,65.7,30.17,NNE,26,10.0,20.0,52,0.00,,SCT,0.00,323.00,VWS V14.01,2013-05-28 20:34:00,
2013-05-28 16:39:00,85.6,65.4,30.17,NNE,24,9.0,21.0,51,0.00,,SCT,0.00,390.00,VWS V14.01,2013-05-28 20:39:00,
2013-05-28 16:44:00,85.6,65.4,30.16,North,360,12.0,21.0,51,0.00,,SCT,0.00,471.00,VWS V14.01,2013-05-28 20:44:00,
2013-05-28 16:49:00,85.8,65.6,30.16,NNW,347,7.0,21.0,51,0.00,,SCT,0.00,610.00,VWS V14.01,2013-05-28 20:49:00,
2013-05-28 16:54:00,85.9,65.1,30.17,NNW,329,11.0,17.0,50,0.00,,SCT,0.00,603.00,VWS V14.01,2013-05-28 20:54:00,
2013-05-28 16:59:00,85.6,65.4,30.16,WNW,288,13.0,17.0,51,0.00,,SCT,0.00,548.00,VWS V14.01,2013-05-28 20:59:00,
2013-05-28 17:00:00,86.0,65.2,30.16,NNE,14,14.0,21.0,50,0.00,,SCT,0.00,613.00,VWS V14.01,2013-05-28 21:00:00,
2013-05-28 17:04:00,85.2,65.6,30.16,North,349,15.0,17.0,52,0.00,,SCT,0.00,209.00,VWS V14.01,2013-05-28 21:04:00,
2013-05-28 17:09:00,85.0,66.0,30.16,North,360,7.0,17.0,53,0.00,,SCT,0.00,227.00,VWS V14.01,2013-05-28 21:09:00,
2013-05-28 17:14:00,85.0,66.0,30.16,NNE,17,12.0,17.0,53,0.00,,SCT,0.00,473.00,VWS V14.01,2013-05-28 21:14:00,
2013-05-28 17:19:00,85.6,66.0,30.16,NNE,13,4.0,17.0,52,0.00,,SCT,0.00,469.00,VWS V14.01,2013-05-28 21:19:00,
2013-05-28 17:24:00,85.8,65.6,30.16,NNW,329,7.0,17.0,51,0.00,,SCT,0.00,431.00,VWS V14.01,2013-05-28 21:24:00,
2013-05-28 17:29:00,85.9,65.1,30.16,North,11,5.0,17.0,50,0.00,,SCT,0.00,420.00,VWS V14.01,2013-05-28 21:29:00,
2013-05-28 17:34:00,85.8,65.0,30.16,North,360,6.0,17.0,50,0.00,,SCT,0.00,371.00,VWS V14.01,2013-05-28 21:34:00,
2013-05-28 17:39:00,85.7,65.5,30.16,NNW,340,10.0,17.0,51,0.00,,SCT,0.00,329.00,VWS V14.01,2013-05-28 21:39:00,
2013-05-28 17:44:00,84.5,65.0,30.18,NNE,25,15.0,31.0,52,0.00,,SCT,0.00,388.00,VWS V14.01,2013-05-28 21:44:00,
2013-05-28 17:49:00,79.2,66.4,30.18,North,355,25.0,35.0,65,0.00,,SCT,0.00,475.00,VWS V14.01,2013-05-28 21:49:00,
2013-05-28 17:54:00,73.3,65.7,30.16,NNW,346,19.0,23.0,77,0.09,,SCT,0.09,441.00,VWS V14.01,2013-05-28 21:54:00,
2013-05-28 17:59:00,71.5,65.7,30.17,NNW,327,15.0,23.0,82,0.10,,SCT,0.10,425.00,VWS V14.01,2013-05-28 21:59:00,
2013-05-28 18:00:00,75.0,65.8,30.16,NNE,14,16.0,35.0,73,0.07,,SCT,0.07,454.00,VWS V14.01,2013-05-28 22:00:00,
2013-05-28 18:04:00,73.1,65.8,30.17,NNE,21,9.0,23.0,78,0.10,,SCT,0.10,283.00,VWS V14.01,2013-05-28 22:04:00,
2013-05-28 18:09:00,74.1,66.8,30.17,NE,49,4.0,23.0,78,0.10,,SCT,0.10,211.00,VWS V14.01,2013-05-28 22:09:00,
2013-05-28 18:14:00,74.9,67.2,30.17,NNW,347,7.0,23.0,77,0.10,,SCT,0.10,387.00,VWS V14.01,2013-05-28 22:14:00,
2013-05-28 18:19:00,76.1,66.8,30.16,NNE,17,4.0,23.0,73,0.10,,SCT,0.10,221.00,VWS V14.01,2013-05-28 22:19:00,
2013-05-28 18:24:00,77.1,68.6,30.16,North,5,2.0,23.0,75,0.10,,SCT,0.10,158.00,VWS V14.01,2013-05-28 22:24:00,
2013-05-28 18:29:00,76.4,69.4,30.16,NNE,30,2.0,23.0,79,0.10,,SCT,0.10,127.00,VWS V14.01,2013-05-28 22:29:00,
2013-05-28 18:34:00,76.3,69.7,30.16,NNE,30,3.0,23.0,80,0.10,,SCT,0.10,109.00,VWS V14.01,2013-05-28 22:34:00,
2013-05-28 18:39:00,76.2,69.6,30.16,NNE,30,0.0,23.0,80,0.10,,SCT,0.10,97.00,VWS V14.01,2013-05-28 22:39:00,
2013-05-28 18:44:00,75.5,69.6,30.16,NNE,30,2.0,23.0,82,0.10,,SCT,0.10,88.00,VWS V14.01,2013-05-28 22:44:00,
2013-05-28 18:49:00,75.5,70.0,30.16,NNE,30,0.0,23.0,83,0.10,,SCT,0.10,86.00,VWS V14.01,2013-05-28 22:49:00,
2013-05-28 18:54:00,75.5,70.3,30.16,NNE,30,1.0,2.0,84,0.03,,SCT,0.10,83.00,VWS V14.01,2013-05-28 22:54:00,
2013-05-28 18:59:00,75.1,70.3,30.16,NNE,30,0.0,3.0,85,0.03,,SCT,0.10,74.00,VWS V14.01,2013-05-28 22:59:00,
2013-05-28 19:00:00,75.5,70.0,30.16,NNE,30,2.0,23.0,83,0.10,,SCT,0.10,84.00,VWS V14.01,2013-05-28 23:00:00,
2013-05-28 19:04:00,74.4,70.9,30.16,NNE,30,0.0,3.0,89,0.03,,SCT,0.10,74.00,VWS V14.01,2013-05-28 23:04:00,
2013-05-28 19:09:00,73.5,70.7,30.16,NNE,30,0.0,3.0,91,0.03,,SCT,0.10,74.00,VWS V14.01,2013-05-28 23:09:00,
2013-05-28 19:14:00,73.3,70.8,30.16,NNE,30,0.0,3.0,92,0.03,,SCT,0.10,83.00,VWS V14.01,2013-05-28 23:14:00,
2013-05-28 19:19:00,73.0,70.5,30.16,NNE,30,0.0,3.0,92,0.03,,SCT,0.10,72.00,VWS V14.01,2013-05-28 23:19:00,
2013-05-28 19:24:00,72.8,70.0,30.16,NNE,30,0.0,3.0,91,0.03,,SCT,0.10,63.00,VWS V14.01,2013-05-28 23:24:00,
2013-05-28 19:29:00,72.7,70.2,30.16,NNE,30,2.0,3.0,92,0.03,,SCT,0.10,49.00,VWS V14.01,2013-05-28 23:29:00,
2013-05-28 19:34:00,72.6,70.2,30.16,NNE,30,0.0,3.0,92,0.03,,SCT,0.10,42.00,VWS V14.01,2013-05-28 23:34:00,
2013-05-28 19:39:00,73.3,70.5,30.15,NNE,30,0.0,3.0,91,0.03,,SCT,0.10,40.00,VWS V14.01,2013-05-28 23:39:00,
2013-05-28 19:44:00,74.0,71.2,30.15,NNE,30,1.0,3.0,91,0.03,,SCT,0.10,33.00,VWS V14.01,2013-05-28 23:44:00,
2013-05-28 19:49:00,74.6,71.2,30.15,NE,35,2.0,5.0,89,0.03,,SCT,0.10,33.00,VWS V14.01,2013-05-28 23:49:00,
2013-05-28 19:54:00,74.9,71.1,30.15,NNE,33,3.0,5.0,88,0.00,,SCT,0.10,28.00,VWS V14.01,2013-05-28 23:54:00,
2013-05-28 19:59:00,75.0,70.9,30.15,NE,36,3.0,5.0,87,0.00,,SCT,0.10,23.00,VWS V14.01,2013-05-28 23:59:00,
2013-05-28 20:00:00,74.8,71.3,30.15,NNE,32,3.0,5.0,89,0.03,,SCT,0.10,28.00,VWS V14.01,2013-05-29 00:00:00,
2013-05-28 20:04:00,75.2,70.7,30.15,NNE,26,2.0,6.0,86,0.00,,SCT,0.10,18.00,VWS V14.01,2013-05-29 00:04:00,
2013-05-28 20:09:00,75.5,70.0,30.15,NNW,340,3.0,6.0,83,0.00,,SCT,0.10,14.00,VWS V14.01,2013-05-29 00:09:00,
2013-05-28 20:14:00,77.0,68.9,30.16,North,355,3.0,10.0,76,0.00,,SCT,0.10,11.00,VWS V14.01,2013-05-29 00:14:00,
2013-05-28 20:19:00,77.8,69.2,30.16,NNW,336,3.0,10.0,75,0.00,,SCT,0.10,5.00,VWS V14.01,2013-05-29 00:19:00,
2013-05-28 20:24:00,77.9,68.9,30.16,NNW,343,2.0,11.0,74,0.00,,SCT,0.10,0.00,VWS V14.01,2013-05-29 00:24:00,
2013-05-28 20:29:00,77.3,69.5,30.16,NE,38,2.0,11.0,77,0.00,,SCT,0.10,0.00,VWS V14.01,2013-05-29 00:29:00,
2013-05-28 20:34:00,77.3,69.5,30.16,NE,38,3.0,11.0,77,0.00,,SCT,0.10,0.00,VWS V14.01,2013-05-29 00:34:00,
2013-05-28 20:39:00,77.4,68.1,30.16,North,355,7.0,11.0,73,0.00,,SCT,0.10,0.00,VWS V14.01,2013-05-29 00:39:00,
2013-05-28 20:44:00,78.1,67.5,30.16,North,355,9.0,11.0,70,0.00,,SCT,0.10,0.00,VWS V14.01,2013-05-29 00:44:00,
2013-05-28 20:49:00,78.5,67.5,30.16,North,355,3.0,11.0,69,0.00,,SCT,0.10,0.00,VWS V14.01,2013-05-29 00:49:00,
2013-05-28 20:54:00,78.8,67.4,30.16,North,351,8.0,9.0,68,0.00,,SCT,0.10,0.00,VWS V14.01,2013-05-29 00:54:00,
2013-05-28 20:59:00,78.8,66.9,30.15,NNE,29,5.0,12.0,67,0.00,,SCT,0.10,0.00,VWS V14.01,2013-05-29 00:59:00,
2013-05-28 21:00:00,78.7,67.3,30.16,NNE,15,7.0,13.0,68,0.00,,SCT,0.10,0.00,VWS V14.01,2013-05-29 01:00:00,
2013-05-28 21:04:00,78.8,67.4,30.16,NNE,17,7.0,12.0,68,0.00,,SCT,0.10,0.00,VWS V14.01,2013-05-29 01:04:00,
2013-05-28 21:09:00,78.7,67.3,30.16,NNE,30,4.0,12.0,68,0.00,,SCT,0.10,0.00,VWS V14.01,2013-05-29 01:09:00,
2013-05-28 21:14:00,78.7,67.3,30.16,NNE,16,7.0,12.0,68,0.00,,SCT,0.10,0.00,VWS V14.01,2013-05-29 01:14:00,
2013-05-28 21:19:00,78.6,67.2,30.16,NNW,333,10.0,12.0,68,0.00,,SCT,0.10,0.00,VWS V14.01,2013-05-29 01:19:00,
2013-05-28 21:24:00,78.6,67.2,30.16,North,5,6.0,12.0,68,0.00,,SCT,0.10,0.00,VWS V14.01,2013-05-29 01:24:00,
2013-05-28 21:29:00,78.4,67.4,30.16,North,5,5.0,12.0,69,0.00,,SCT,0.10,0.00,VWS V14.01,2013-05-29 01:29:00,
2013-05-28 21:34:00,78.3,66.9,30.16,NNW,344,6.0,12.0,68,0.00,,SCT,0.10,0.00,VWS V14.01,2013-05-29 01:34:00,
2013-05-28 21:39:00,78.5,66.6,30.16,NNW,344,5.0,13.0,67,0.00,,SCT,0.10,0.00,VWS V14.01,2013-05-29 01:39:00,
2013-05-28 21:44:00,78.6,66.7,30.16,North,5,8.0,13.0,67,0.00,,SCT,0.10,0.00,VWS V14.01,2013-05-29 01:44:00,
2013-05-28 21:49:00,78.7,66.8,30.16,North,10,6.0,16.0,67,0.00,,SCT,0.10,0.00,VWS V14.01,2013-05-29 01:49:00,
2013-05-28 21:54:00,78.6,66.7,30.17,North,10,8.0,13.0,67,0.00,,SCT,0.10,0.00,VWS V14.01,2013-05-29 01:54:00,
2013-05-28 21:59:00,78.5,66.6,30.17,NNE,16,12.0,18.0,67,0.00,,SCT,0.10,0.00,VWS V14.01,2013-05-29 01:59:00,
2013-05-28 22:00:00,78.7,66.8,30.16,NNE,13,8.0,16.0,67,0.00,,SCT,0.10,0.00,VWS V14.01,2013-05-29 02:00:00,
2013-05-28 22:04:00,78.5,66.6,30.17,NNW,348,11.0,18.0,67,0.00,,SCT,0.10,0.00,VWS V14.01,2013-05-29 02:04:00,
2013-05-28 22:09:00,78.5,66.6,30.17,North,360,8.0,19.0,67,0.00,,SCT,0.10,0.00,VWS V14.01,2013-05-29 02:09:00,
2013-05-28 22:14:00,78.5,66.6,30.17,North,5,8.0,19.0,67,0.00,,SCT,0.10,0.00,VWS V14.01,2013-05-29 02:14:00,
2013-05-28 22:19:00,78.4,66.6,30.17,North,11,10.0,19.0,67,0.00,,SCT,0.10,0.00,VWS V14.01,2013-05-29 02:19:00,
2013-05-28 22:24:00,78.3,66.4,30.17,NNE,24,9.0,20.0,67,0.00,,SCT,0.10,0.00,VWS V14.01,2013-05-29 02:24:00,
2013-05-28 22:29:00,78.2,66.4,30.17,NNE,25,7.0,20.0,67,0.00,,SCT,0.10,0.00,VWS V14.01,2013-05-29 02:29:00,
2013-05-28 22:34:00,78.2,66.4,30.17,NNE,25,7.0,20.0,67,0.00,,SCT,0.10,0.00,VWS V14.01,2013-05-29 02:34:00,
2013-05-28 22:39:00,77.7,66.7,30.18,NNE,33,3.0,20.0,69,0.00,,SCT,0.10,0.00,VWS V14.01,2013-05-29 02:39:00,
2013-05-28 22:44:00,76.8,67.1,30.18,NE,43,2.0,20.0,72,0.00,,SCT,0.10,0.00,VWS V14.01,2013-05-29 02:44:00,
2013-05-28 22:49:00,75.9,66.6,30.18,NE,56,5.0,20.0,73,0.00,,SCT,0.10,0.00,VWS V14.01,2013-05-29 02:49:00,
2013-05-28 22:54:00,75.5,66.6,30.18,NNE,17,11.0,18.0,74,0.00,,SCT,0.10,0.00,VWS V14.01,2013-05-29 02:54:00,
2013-05-28 22:59:00,76.3,67.0,30.18,North,360,8.0,18.0,73,0.00,,SCT,0.10,0.00,VWS V14.01,2013-05-29 02:59:00,
2013-05-28 23:00:00,75.4,66.9,30.18,NNE,26,12.0,20.0,75,0.00,,SCT,0.10,0.00,VWS V14.01,2013-05-29 03:00:00,
2013-05-28 23:04:00,76.6,66.5,30.18,NE,40,13.0,18.0,71,0.00,,SCT,0.10,0.00,VWS V14.01,2013-05-29 03:04:00,
2013-05-28 23:09:00,76.6,66.9,30.18,ENE,57,5.0,18.0,72,0.00,,SCT,0.10,0.00,VWS V14.01,2013-05-29 03:09:00,
2013-05-28 23:14:00,75.5,67.0,30.18,ENE,66,8.0,18.0,75,0.00,,SCT,0.10,0.00,VWS V14.01,2013-05-29 03:14:00,
2013-05-28 23:19:00,74.6,66.9,30.18,NE,47,7.0,18.0,77,0.00,,SCT,0.10,0.00,VWS V14.01,2013-05-29 03:19:00,
2013-05-28 23:24:00,73.8,66.9,30.18,ENE,60,8.0,18.0,79,0.00,,SCT,0.10,0.00,VWS V14.01,2013-05-29 03:24:00,
2013-05-28 23:29:00,73.4,66.9,30.18,ENE,59,5.0,18.0,80,0.00,,SCT,0.10,0.00,VWS V14.01,2013-05-29 03:29:00,
2013-05-28 23:34:00,73.0,66.8,30.19,NNE,30,8.0,18.0,81,0.00,,SCT,0.10,0.00,VWS V14.01,2013-05-29 03:34:00,
2013-05-28 23:39:00,72.7,66.9,30.19,NNE,25,7.0,18.0,82,0.00,,SCT,0.10,0.00,VWS V14.01,2013-05-29 03:39:00,
2013-05-28 23:44:00,72.6,66.8,30.19,NNE,28,7.0,18.0,82,0.00,,SCT,0.10,0.00,VWS V14.01,2013-05-29 03:44:00,
2013-05-28 23:49:00,72.7,66.5,30.19,NNE,33,7.0,18.0,81,0.00,,SCT,0.10,0.00,VWS V14.01,2013-05-29 03:49:00,
2013-05-28 23:54:00,72.9,66.7,30.19,NNE,30,6.0,8.0,81,0.00,,SCT,0.00,0.00,VWS V14.01,2013-05-29 03:54:00,
2013-05-28 23:59:00,72.9,66.7,30.19,NNE,21,5.0,9.0,81,0.00,,SCT,0.00,0.00,VWS V14.01,2013-05-29 03:59:00,